createdAt,value
2017-01-17T00:00:56.250Z,63.85
2017-01-17T00:01:56.675Z,63.48
2017-01-17T00:02:56.669Z,63.48
2017-01-17T00:03:56.728Z,63.48
2017-01-17T00:04:56.298Z,63.29
2017-01-17T00:05:56.304Z,63.29
2017-01-17T00:06:56.716Z,63.2
2017-01-17T00:07:56.721Z,63.1
2017-01-17T00:08:56.329Z,62.53
2017-01-17T00:09:56.342Z,61.96
2017-01-17T00:10:56.352Z,62.15
2017-01-17T00:11:56.361Z,62.82
2017-01-17T00:12:56.773Z,62.25
2017-01-17T00:13:56.383Z,62.34
2017-01-17T00:14:56.398Z,62.82
2017-01-17T00:15:56.403Z,63.67
2017-01-17T00:16:56.811Z,63.01
2017-01-17T00:17:56.827Z,62.82
2017-01-17T00:18:56.516Z,63.2
2017-01-17T00:19:56.448Z,63.01
2017-01-17T00:20:56.454Z,63.01
2017-01-17T00:21:56.463Z,62.18
2017-01-17T00:22:56.475Z,62.15
2017-01-17T00:23:56.533Z,62.63
2017-01-17T00:24:56.892Z,62.34
2017-01-17T00:25:56.504Z,62.53
2017-01-17T00:26:56.517Z,63.01
2017-01-17T00:27:56.926Z,63.01
2017-01-17T00:28:57.035Z,62.82
2017-01-17T00:29:56.548Z,62.82
2017-01-17T00:30:56.562Z,63.2
2017-01-17T00:31:56.567Z,62.82
2017-01-17T00:32:56.978Z,62.72
2017-01-17T00:33:56.597Z,63.01
2017-01-17T00:34:56.596Z,62.82
2017-01-17T00:35:57.006Z,62.72
2017-01-17T00:36:56.615Z,62.82
2017-01-17T00:37:56.629Z,62.72
2017-01-17T00:38:56.639Z,62.53
2017-01-17T00:39:56.652Z,62.82
2017-01-17T00:40:57.059Z,63.01
2017-01-17T00:41:56.674Z,63.01
2017-01-17T00:42:57.081Z,62.44
2017-01-17T00:43:56.692Z,62.25
2017-01-17T00:44:57.216Z,61.77
2017-01-17T00:45:56.711Z,62.34
2017-01-17T00:46:56.723Z,62.34
2017-01-17T00:47:56.733Z,62.15
2017-01-17T00:48:56.741Z,62.34
2017-01-17T00:49:56.752Z,62.06
2017-01-17T00:50:57.157Z,62.06
2017-01-17T00:51:57.172Z,61.77
2017-01-17T00:52:57.181Z,62.06
2017-01-17T00:53:57.194Z,62.34
2017-01-17T00:54:56.804Z,62.53
2017-01-17T00:55:57.212Z,61.87
2017-01-17T00:56:56.823Z,61.96
2017-01-17T00:57:56.834Z,62.06
2017-01-17T00:58:56.844Z,62.15
2017-01-17T00:59:57.252Z,62.06
2017-01-17T01:00:57.261Z,62.53
2017-01-17T01:01:56.875Z,62.63
2017-01-17T01:02:56.885Z,63.2
2017-01-17T01:03:57.295Z,62.91
2017-01-17T01:04:57.305Z,62.72
2017-01-17T01:05:57.313Z,61.96
2017-01-17T01:06:56.930Z,62.72
2017-01-17T01:07:57.340Z,62.44
2017-01-17T01:08:56.946Z,62.06
2017-01-17T01:09:57.404Z,62.06
2017-01-17T01:10:56.965Z,61.96
2017-01-17T01:11:57.374Z,62.63
2017-01-17T01:12:57.384Z,62.53
2017-01-17T01:13:57.394Z,62.06
2017-01-17T01:14:57.054Z,62.34
2017-01-17T01:15:57.414Z,62.25
2017-01-17T01:16:57.425Z,61.87
2017-01-17T01:17:57.038Z,62.91
2017-01-17T01:18:57.443Z,63.76
2017-01-17T01:19:58.112Z,63.39
2017-01-17T01:20:57.465Z,62.82
2017-01-17T01:21:57.076Z,62.44
2017-01-17T01:22:57.485Z,62.91
2017-01-17T01:23:57.095Z,62.72
2017-01-17T01:24:57.105Z,62.82
2017-01-17T01:25:57.515Z,63.01
2017-01-17T01:26:57.127Z,63.01
2017-01-17T01:27:57.137Z,62.44
2017-01-17T01:28:57.544Z,63.01
2017-01-17T01:29:57.555Z,62.82
2017-01-17T01:30:57.167Z,63.1
2017-01-17T01:31:57.176Z,63.39
2017-01-17T01:32:57.186Z,63.29
2017-01-17T01:33:57.195Z,62.63
2017-01-17T01:34:57.606Z,62.72
2017-01-17T01:35:57.222Z,62.34
2017-01-17T01:36:57.652Z,62.53
2017-01-17T01:37:57.634Z,62.82
2017-01-17T01:38:57.644Z,62.53
2017-01-17T01:39:57.663Z,62.15
2017-01-17T01:40:57.670Z,62.53
2017-01-17T01:41:57.276Z,62.63
2017-01-17T01:42:57.291Z,62.82
2017-01-17T01:43:57.296Z,63.01
2017-01-17T01:44:57.708Z,62.06
2017-01-17T01:45:57.367Z,61.96
2017-01-17T01:46:57.326Z,62.06
2017-01-17T01:47:57.736Z,62.72
2017-01-17T01:48:57.745Z,62.63
2017-01-17T01:49:57.359Z,61.96
2017-01-17T01:50:57.369Z,62.44
2017-01-17T01:51:57.380Z,61.96
2017-01-17T01:52:57.391Z,61.96
2017-01-17T01:53:57.796Z,61.4
2017-01-17T01:54:57.806Z,61.49
2017-01-17T01:55:57.817Z,61.87
2017-01-17T01:56:57.828Z,62.06
2017-01-17T01:57:57.857Z,62.25
2017-01-17T01:58:57.449Z,62.25
2017-01-17T01:59:57.859Z,61.96
2017-01-17T02:00:57.867Z,61.87
2017-01-17T02:01:57.482Z,61.58
2017-01-17T02:02:57.492Z,61.77
2017-01-17T02:03:57.501Z,61.77
2017-01-17T02:04:57.959Z,61.58
2017-01-17T02:05:57.917Z,62.34
2017-01-17T02:06:57.529Z,61.77
2017-01-17T02:07:57.564Z,62.44
2017-01-17T02:08:57.949Z,62.06
2017-01-17T02:09:57.662Z,61.87
2017-01-17T02:10:57.569Z,61.87
2017-01-17T02:11:57.992Z,62.06
2017-01-17T02:12:57.603Z,61.96
2017-01-17T02:13:58.001Z,62.15
2017-01-17T02:14:57.660Z,62.25
2017-01-17T02:15:57.622Z,62.06
2017-01-17T02:16:58.032Z,62.06
2017-01-17T02:17:58.041Z,61.49
2017-01-17T02:18:58.053Z,61.49
2017-01-17T02:19:57.668Z,61.77
2017-01-17T02:20:57.673Z,61.21
2017-01-17T02:21:58.080Z,61.87
2017-01-17T02:22:57.702Z,62.06
2017-01-17T02:23:57.705Z,62.06
2017-01-17T02:24:58.109Z,62.25
2017-01-17T02:25:58.127Z,62.06
2017-01-17T02:26:58.131Z,62.25
2017-01-17T02:27:57.747Z,61.49
2017-01-17T02:28:58.152Z,61.58
2017-01-17T02:29:57.761Z,61.87
2017-01-17T02:30:58.171Z,61.3
2017-01-17T02:31:57.781Z,61.58
2017-01-17T02:32:58.190Z,61.77
2017-01-17T02:33:58.200Z,61.77
2017-01-17T02:34:57.810Z,61.77
2017-01-17T02:35:58.223Z,61.77
2017-01-17T02:36:58.229Z,61.3
2017-01-17T02:37:58.239Z,61.02
2017-01-17T02:38:58.251Z,61.11
2017-01-17T02:39:57.895Z,61.68
2017-01-17T02:40:57.973Z,61.49
2017-01-17T02:41:57.881Z,61.77
2017-01-17T02:42:58.093Z,61.3
2017-01-17T02:43:57.900Z,61.46
2017-01-17T02:44:58.308Z,62.25
2017-01-17T02:45:58.323Z,61.58
2017-01-17T02:46:57.929Z,61.68
2017-01-17T02:47:57.941Z,61.77
2017-01-17T02:48:57.950Z,61.74
2017-01-17T02:49:58.358Z,61.58
2017-01-17T02:50:58.387Z,61.68
2017-01-17T02:51:57.979Z,61.3
2017-01-17T02:52:58.237Z,61.65
2017-01-17T02:53:58.410Z,61.87
2017-01-17T02:54:58.015Z,61.68
2017-01-17T02:55:58.119Z,60.93
2017-01-17T02:56:58.428Z,60.64
2017-01-17T02:57:58.064Z,60.89
2017-01-17T02:58:58.048Z,60.83
2017-01-17T02:59:58.456Z,61.08
2017-01-17T03:00:58.070Z,61.11
2017-01-17T03:01:58.479Z,60.45
2017-01-17T03:02:58.486Z,60.45
2017-01-17T03:03:58.493Z,61.02
2017-01-17T03:04:58.157Z,60.99
2017-01-17T03:05:58.119Z,61.21
2017-01-17T03:06:58.527Z,61.11
2017-01-17T03:07:58.136Z,61.3
2017-01-17T03:08:58.144Z,61.3
2017-01-17T03:09:58.206Z,59.88
2017-01-17T03:10:58.166Z,59.6
2017-01-17T03:11:58.584Z,59.66
2017-01-17T03:12:58.187Z,60.04
2017-01-17T03:13:58.193Z,60.61
2017-01-17T03:14:58.359Z,60.33
2017-01-17T03:15:58.212Z,60.7
2017-01-17T03:16:58.227Z,60.99
2017-01-17T03:17:58.232Z,60.7
2017-01-17T03:18:58.243Z,60.89
2017-01-17T03:19:58.302Z,60.99
2017-01-17T03:20:58.263Z,60.04
2017-01-17T03:21:58.674Z,60.8
2017-01-17T03:22:58.281Z,61.18
2017-01-17T03:23:58.295Z,61.36
2017-01-17T03:24:58.301Z,60.99
2017-01-17T03:25:58.713Z,61.18
2017-01-17T03:26:58.720Z,60.89
2017-01-17T03:27:58.330Z,60.8
2017-01-17T03:28:58.339Z,60.33
2017-01-17T03:29:58.350Z,60.33
2017-01-17T03:30:58.360Z,60.99
2017-01-17T03:31:58.371Z,60.61
2017-01-17T03:32:58.379Z,60.23
2017-01-17T03:33:58.788Z,59.85
2017-01-17T03:34:58.800Z,60.04
2017-01-17T03:35:58.807Z,60.42
2017-01-17T03:36:58.817Z,60.61
2017-01-17T03:37:58.827Z,61.08
2017-01-17T03:38:58.842Z,60.8
2017-01-17T03:39:58.446Z,60.23
2017-01-17T03:40:58.856Z,60.7
2017-01-17T03:41:58.866Z,61.08
2017-01-17T03:42:58.875Z,61.08
2017-01-17T03:43:58.884Z,61.55
2017-01-17T03:44:58.894Z,61.08
2017-01-17T03:45:58.505Z,61.18
2017-01-17T03:46:58.514Z,60.7
2017-01-17T03:47:58.922Z,61.65
2017-01-17T03:48:58.538Z,61.74
2017-01-17T03:49:58.945Z,61.27
2017-01-17T03:50:58.553Z,61.65
2017-01-17T03:51:58.562Z,60.8
2017-01-17T03:52:58.973Z,61.08
2017-01-17T03:53:58.581Z,60.7
2017-01-17T03:54:58.991Z,61.18
2017-01-17T03:55:59.049Z,61.08
2017-01-17T03:56:58.614Z,61.27
2017-01-17T03:57:58.618Z,60.99
2017-01-17T03:58:59.028Z,61.36
2017-01-17T03:59:58.639Z,61.83
2017-01-17T04:00:58.697Z,61.55
2017-01-17T04:01:59.056Z,61.36
2017-01-17T04:02:58.667Z,60.99
2017-01-17T04:03:58.675Z,61.27
2017-01-17T04:04:59.083Z,61.55
2017-01-17T04:05:58.697Z,61.18
2017-01-17T04:06:59.105Z,61.08
2017-01-17T04:07:59.122Z,61.18
2017-01-17T04:08:59.123Z,61.36
2017-01-17T04:09:59.136Z,61.46
2017-01-17T04:10:59.143Z,60.99
2017-01-17T04:11:58.751Z,61.08
2017-01-17T04:12:58.762Z,61.08
2017-01-17T04:13:59.170Z,61.08
2017-01-17T04:14:58.830Z,61.08
2017-01-17T04:15:58.789Z,61.83
2017-01-17T04:16:58.804Z,61.46
2017-01-17T04:17:58.809Z,61.65
2017-01-17T04:18:59.219Z,61.65
2017-01-17T04:19:59.575Z,61.46
2017-01-17T04:20:58.837Z,60.8
2017-01-17T04:21:58.847Z,61.08
2017-01-17T04:22:58.854Z,60.7
2017-01-17T04:23:58.865Z,60.89
2017-01-17T04:24:58.873Z,61.18
2017-01-17T04:25:59.282Z,61.08
2017-01-17T04:26:58.892Z,60.23
2017-01-17T04:27:58.901Z,60.23
2017-01-17T04:28:58.910Z,60.04
2017-01-17T04:29:59.320Z,60.14
2017-01-17T04:30:59.330Z,60.04
2017-01-17T04:31:59.336Z,60.99
2017-01-17T04:32:58.950Z,60.96
2017-01-17T04:33:59.355Z,61.52
2017-01-17T04:34:59.366Z,61.43
2017-01-17T04:35:58.977Z,61.65
2017-01-17T04:36:58.985Z,61.18
2017-01-17T04:37:58.994Z,61.08
2017-01-17T04:38:59.004Z,61.08
2017-01-17T04:39:59.013Z,61.18
2017-01-17T04:40:59.022Z,60.8
2017-01-17T04:41:59.031Z,60.89
2017-01-17T04:42:59.440Z,60.8
2017-01-17T04:43:59.050Z,60.99
2017-01-17T04:44:59.060Z,61.08
2017-01-17T04:45:59.070Z,60.89
2017-01-17T04:46:59.476Z,60.33
2017-01-17T04:47:59.086Z,60.14
2017-01-17T04:48:59.494Z,60.04
2017-01-17T04:49:59.107Z,60.58
2017-01-17T04:50:59.113Z,61.15
2017-01-17T04:51:59.127Z,61.61
2017-01-17T04:52:59.530Z,61.27
2017-01-17T04:53:59.543Z,60.42
2017-01-17T04:54:59.152Z,60.14
2017-01-17T04:55:59.234Z,60.23
2017-01-17T04:56:59.169Z,59.85
2017-01-17T04:57:59.178Z,60.2
2017-01-17T04:58:59.587Z,59.92
2017-01-17T04:59:59.194Z,60.3
2017-01-17T05:00:59.205Z,60.23
2017-01-17T05:01:59.615Z,59.85
2017-01-17T05:02:59.622Z,60.01
2017-01-17T05:03:59.631Z,60.67
2017-01-17T05:04:59.641Z,60.04
2017-01-17T05:05:59.650Z,60.33
2017-01-17T05:06:59.659Z,60.52
2017-01-17T05:07:59.670Z,60.61
2017-01-17T05:08:59.681Z,60.14
2017-01-17T05:09:59.289Z,59.66
2017-01-17T05:10:59.296Z,58.72
2017-01-17T05:11:59.304Z,59.19
2017-01-17T05:12:59.717Z,60.14
2017-01-17T05:13:59.727Z,59.57
2017-01-17T05:14:59.729Z,59.76
2017-01-17T05:15:59.341Z,59
2017-01-17T05:16:59.755Z,58.72
2017-01-17T05:17:59.762Z,58.91
2017-01-17T05:18:59.368Z,59.06
2017-01-17T05:19:59.777Z,59.73
2017-01-17T05:20:59.789Z,60.01
2017-01-17T05:21:59.396Z,59.92
2017-01-17T05:22:59.406Z,59.54
2017-01-17T05:23:59.816Z,59.06
2017-01-17T05:24:59.826Z,59.82
2017-01-17T05:25:59.433Z,59.82
2017-01-17T05:26:59.890Z,58.78
2017-01-17T05:27:59.449Z,59.25
2017-01-17T05:28:59.460Z,59.35
2017-01-17T05:29:59.469Z,60.01
2017-01-17T05:30:59.477Z,59.54
2017-01-17T05:31:59.485Z,58.97
2017-01-17T05:32:59.493Z,58.69
2017-01-17T05:33:59.903Z,58.78
2017-01-17T05:34:59.512Z,58.78
2017-01-17T05:35:59.521Z,59.82
2017-01-17T05:36:59.534Z,59.73
2017-01-17T05:37:59.541Z,60.01
2017-01-17T05:38:59.957Z,59.92
2017-01-17T05:39:59.559Z,59.82
2017-01-17T05:40:59.964Z,59.25
2017-01-17T05:41:59.976Z,59.82
2017-01-17T05:42:59.585Z,61.15
2017-01-17T05:43:59.990Z,61.24
2017-01-17T05:45:00.300Z,60.11
2017-01-17T05:46:00.021Z,60.01
2017-01-17T05:47:00.017Z,60.3
2017-01-17T05:47:59.628Z,60.01
2017-01-17T05:48:59.635Z,60.39
2017-01-17T05:50:00.044Z,59.73
2017-01-17T05:51:00.051Z,59.82
2017-01-17T05:51:59.662Z,60.01
2017-01-17T05:52:59.672Z,59.73
2017-01-17T05:53:59.679Z,60.11
2017-01-17T05:55:00.090Z,59.35
2017-01-17T05:56:00.101Z,60.11
2017-01-17T05:56:59.710Z,59.82
2017-01-17T05:58:00.119Z,59.44
2017-01-17T05:58:59.726Z,59.63
2017-01-17T05:59:59.737Z,59.82
2017-01-17T06:00:59.748Z,59.92
2017-01-17T06:02:00.152Z,59.92
2017-01-17T06:03:00.160Z,58.97
2017-01-17T06:04:00.173Z,59.73
2017-01-17T06:04:59.790Z,59.73
2017-01-17T06:05:59.790Z,59.44
2017-01-17T06:06:59.800Z,60.01
2017-01-17T06:07:59.810Z,60.2
2017-01-17T06:08:59.817Z,59.92
2017-01-17T06:10:00.225Z,60.11
2017-01-17T06:11:00.234Z,59.92
2017-01-17T06:11:59.847Z,59.35
2017-01-17T06:12:59.851Z,58.78
2017-01-17T06:14:00.259Z,58.97
2017-01-17T06:14:59.868Z,59.63
2017-01-17T06:16:00.278Z,59.63
2017-01-17T06:16:59.890Z,59.35
2017-01-17T06:17:59.896Z,59.82
2017-01-17T06:19:00.314Z,59.73
2017-01-17T06:20:00.317Z,59.82
2017-01-17T06:20:59.922Z,60.11
2017-01-17T06:22:00.332Z,60.11
2017-01-17T06:22:59.943Z,59.92
2017-01-17T06:24:00.357Z,60.3
2017-01-17T06:25:00.356Z,60.39
2017-01-17T06:26:00.368Z,59.92
2017-01-17T06:26:59.978Z,59.63
2017-01-17T06:27:59.984Z,60.11
2017-01-17T06:29:00.395Z,59.63
2017-01-17T06:30:00.405Z,59.06
2017-01-17T06:31:00.014Z,59.35
2017-01-17T06:32:00.420Z,59.16
2017-01-17T06:33:00.033Z,59.63
2017-01-17T06:34:00.436Z,59.73
2017-01-17T06:35:00.450Z,58.97
2017-01-17T06:36:00.060Z,59.16
2017-01-17T06:37:00.466Z,57.93
2017-01-17T06:38:00.079Z,57.93
2017-01-17T06:39:00.484Z,58.97
2017-01-17T06:40:00.099Z,59.16
2017-01-17T06:41:00.500Z,58.69
2017-01-17T06:42:00.111Z,58.97
2017-01-17T06:43:00.518Z,58.87
2017-01-17T06:44:00.129Z,58.4
2017-01-17T06:45:00.140Z,58.59
2017-01-17T06:46:00.151Z,57.74
2017-01-17T06:47:00.556Z,57.55
2017-01-17T06:48:00.563Z,57.84
2017-01-17T06:49:00.175Z,57.93
2017-01-17T06:50:00.184Z,58.12
2017-01-17T06:51:00.244Z,57.84
2017-01-17T06:52:00.203Z,58.22
2017-01-17T06:53:00.217Z,58.03
2017-01-17T06:54:00.220Z,57.93
2017-01-17T06:55:00.626Z,57.74
2017-01-17T06:56:00.239Z,58.12
2017-01-17T06:57:00.644Z,57.65
2017-01-17T06:58:00.255Z,58.4
2017-01-17T06:59:00.275Z,58.4
2017-01-17T07:00:00.674Z,57.84
2017-01-17T07:01:00.282Z,57.65
2017-01-17T07:02:00.293Z,57.93
2017-01-17T07:03:00.300Z,57.84
2017-01-17T07:04:00.710Z,58.59
2017-01-17T07:05:00.924Z,59.06
2017-01-17T07:06:00.734Z,58.5
2017-01-17T07:07:00.734Z,58.4
2017-01-17T07:08:00.750Z,58.31
2017-01-17T07:09:00.802Z,58.69
2017-01-17T07:10:00.761Z,58.22
2017-01-17T07:11:00.769Z,58.22
2017-01-17T07:12:00.383Z,57.84
2017-01-17T07:13:00.798Z,57.84
2017-01-17T07:14:00.419Z,57.65
2017-01-17T07:15:00.806Z,58.4
2017-01-17T07:16:00.414Z,58.5
2017-01-17T07:17:00.821Z,59.06
2017-01-17T07:18:00.432Z,59.06
2017-01-17T07:19:00.841Z,58.59
2017-01-17T07:20:00.864Z,58.97
2017-01-17T07:21:00.478Z,59.16
2017-01-17T07:22:00.466Z,58.97
2017-01-17T07:23:00.918Z,59.44
2017-01-17T07:24:00.889Z,59.63
2017-01-17T07:25:00.889Z,59.16
2017-01-17T07:26:00.900Z,58.97
2017-01-17T07:27:00.929Z,59.35
2017-01-17T07:28:00.516Z,59.92
2017-01-17T07:29:00.532Z,59.82
2017-01-17T07:30:00.535Z,59.92
2017-01-17T07:31:00.944Z,60.11
2017-01-17T07:32:00.955Z,59.54
2017-01-17T07:33:00.963Z,58.5
2017-01-17T07:34:00.572Z,58.78
2017-01-17T07:35:00.633Z,58.97
2017-01-17T07:36:00.989Z,58.87
2017-01-17T07:37:00.999Z,58.4
2017-01-17T07:38:00.606Z,58.59
2017-01-17T07:39:00.616Z,58.5
2017-01-17T07:40:00.674Z,58.59
2017-01-17T07:41:00.653Z,58.03
2017-01-17T07:42:01.040Z,58.97
2017-01-17T07:43:01.048Z,58.97
2017-01-17T07:44:00.658Z,58.31
2017-01-17T07:45:00.718Z,57.93
2017-01-17T07:46:00.675Z,58.03
2017-01-17T07:47:01.093Z,58.12
2017-01-17T07:48:00.695Z,58.69
2017-01-17T07:49:01.099Z,58.5
2017-01-17T07:50:01.109Z,58.59
2017-01-17T07:51:00.720Z,58.69
2017-01-17T07:52:00.728Z,58.59
2017-01-17T07:53:01.136Z,58.69
2017-01-17T07:54:01.147Z,58.97
2017-01-17T07:55:01.152Z,58.87
2017-01-17T07:56:01.162Z,58.78
2017-01-17T07:57:00.776Z,58.78
2017-01-17T07:58:01.181Z,58.59
2017-01-17T07:59:01.187Z,57.93
2017-01-17T08:00:00.801Z,57.93
2017-01-17T08:01:01.256Z,58.31
2017-01-17T08:02:00.816Z,58.12
2017-01-17T08:03:01.226Z,58.12
2017-01-17T08:04:01.235Z,58.69
2017-01-17T08:05:00.842Z,58.59
2017-01-17T08:06:01.298Z,58.97
2017-01-17T08:07:01.260Z,58.78
2017-01-17T08:08:01.268Z,58.78
2017-01-17T08:09:00.878Z,58.59
2017-01-17T08:10:01.287Z,57.74
2017-01-17T08:11:01.296Z,57.87
2017-01-17T08:12:01.632Z,57.46
2017-01-17T08:13:00.985Z,57.74
2017-01-17T08:14:01.016Z,57.84
2017-01-17T08:15:01.710Z,58.69
2017-01-17T08:16:01.715Z,58.5
2017-01-17T08:17:01.696Z,59
2017-01-17T08:18:01.457Z,58.44
2017-01-17T08:19:01.218Z,57.68
2017-01-17T08:20:01.418Z,57.87
2017-01-17T08:21:01.395Z,57.49
2017-01-17T08:22:01.392Z,57.2
2017-01-17T08:23:01.424Z,57.58
2017-01-17T08:24:01.016Z,57.58
2017-01-17T08:25:01.020Z,56.63
2017-01-17T08:26:01.030Z,56.73
2017-01-17T08:27:01.046Z,56.35
2017-01-17T08:28:01.049Z,55.98
2017-01-17T08:29:01.058Z,56.63
2017-01-17T08:30:01.069Z,56.82
2017-01-17T08:31:01.079Z,56.73
2017-01-17T08:32:01.084Z,57.68
2017-01-17T08:33:01.096Z,57.68
2017-01-17T08:34:01.106Z,57.87
2017-01-17T08:35:01.112Z,57.49
2017-01-17T08:36:01.124Z,56.82
2017-01-17T08:37:01.533Z,56.82
2017-01-17T08:38:01.141Z,57.58
2017-01-17T08:39:01.553Z,56.82
2017-01-17T08:40:01.559Z,57.01
2017-01-17T08:41:01.171Z,56.16
2017-01-17T08:42:01.184Z,55.88
2017-01-17T08:43:01.606Z,55.41
2017-01-17T08:44:01.200Z,55.5
2017-01-17T08:45:01.409Z,56.26
2017-01-17T08:46:01.616Z,56.07
2017-01-17T08:47:01.624Z,55.98
2017-01-17T08:48:01.235Z,56.92
2017-01-17T08:49:01.250Z,56.82
2017-01-17T08:50:01.653Z,57.01
2017-01-17T08:51:01.659Z,56.63
2017-01-17T08:52:01.274Z,56.54
2017-01-17T08:53:01.684Z,56.63
2017-01-17T08:54:01.290Z,56.26
2017-01-17T08:55:01.696Z,56.54
2017-01-17T08:56:01.310Z,57.58
2017-01-17T08:57:01.318Z,58.06
2017-01-17T08:58:01.326Z,58.34
2017-01-17T08:59:01.738Z,57.11
2017-01-17T09:00:01.745Z,56.54
2017-01-17T09:01:01.357Z,56.63
2017-01-17T09:02:01.763Z,57.11
2017-01-17T09:03:01.773Z,57.68
2017-01-17T09:04:01.384Z,57.49
2017-01-17T09:05:01.392Z,57.68
2017-01-17T09:06:01.802Z,57.58
2017-01-17T09:07:01.409Z,57.96
2017-01-17T09:08:01.819Z,57.77
2017-01-17T09:09:01.429Z,57.77
2017-01-17T09:10:01.441Z,58.91
2017-01-17T09:11:01.448Z,59.47
2017-01-17T09:12:01.458Z,58.72
2017-01-17T09:13:01.864Z,57.96
2017-01-17T09:14:01.877Z,57.96
2017-01-17T09:15:01.507Z,58.15
2017-01-17T09:16:01.894Z,58.15
2017-01-17T09:17:01.503Z,58.34
2017-01-17T09:18:01.513Z,57.96
2017-01-17T09:19:01.975Z,58.62
2017-01-17T09:20:01.930Z,57.77
2017-01-17T09:21:01.938Z,57.96
2017-01-17T09:22:01.978Z,58.34
2017-01-17T09:23:01.561Z,58.34
2017-01-17T09:24:01.618Z,58.72
2017-01-17T09:25:01.977Z,58.53
2017-01-17T09:26:01.990Z,58.44
2017-01-17T09:27:01.596Z,58.44
2017-01-17T09:28:02.007Z,57.58
2017-01-17T09:29:01.667Z,57.2
2017-01-17T09:30:01.624Z,57.77
2017-01-17T09:31:01.632Z,58.34
2017-01-17T09:32:02.043Z,58.53
2017-01-17T09:33:02.096Z,58.53
2017-01-17T09:34:01.662Z,57.96
2017-01-17T09:35:01.672Z,56.54
2017-01-17T09:36:01.682Z,56.63
2017-01-17T09:37:01.694Z,56.63
2017-01-17T09:38:02.095Z,56.61
2017-01-17T09:39:02.105Z,57.84
2017-01-17T09:40:01.716Z,58.87
2017-01-17T09:41:01.723Z,59.57
2017-01-17T09:42:02.136Z,59.57
2017-01-17T09:43:01.744Z,59.19
2017-01-17T09:44:01.756Z,59.09
2017-01-17T09:45:02.161Z,58.25
2017-01-17T09:46:01.773Z,57.39
2017-01-17T09:47:02.181Z,56.63
2017-01-17T09:48:01.791Z,56.35
2017-01-17T09:49:02.250Z,56.63
2017-01-17T09:50:02.208Z,57.58
2017-01-17T09:51:02.223Z,57.49
2017-01-17T09:52:01.831Z,57.01
2017-01-17T09:53:01.835Z,57.49
2017-01-17T09:54:01.899Z,56.92
2017-01-17T09:55:01.857Z,56.73
2017-01-17T09:56:02.261Z,55.98
2017-01-17T09:57:01.873Z,56.35
2017-01-17T09:58:01.884Z,56.16
2017-01-17T09:59:01.895Z,56.63
2017-01-17T10:00:01.904Z,55.6
2017-01-17T10:01:02.311Z,55.5
2017-01-17T10:02:02.320Z,56.07
2017-01-17T10:03:02.335Z,56.54
2017-01-17T10:04:01.946Z,55.88
2017-01-17T10:05:02.347Z,56.99
2017-01-17T10:06:02.357Z,56.16
2017-01-17T10:07:01.967Z,56.61
2017-01-17T10:08:02.377Z,57.84
2017-01-17T10:09:02.390Z,57.08
2017-01-17T10:10:02.393Z,57.08
2017-01-17T10:11:02.405Z,57.74
2017-01-17T10:12:02.414Z,56.99
2017-01-17T10:13:02.423Z,57.93
2017-01-17T10:14:02.034Z,58.59
2017-01-17T10:15:02.444Z,57.74
2017-01-17T10:16:02.458Z,57.01
2017-01-17T10:17:02.461Z,57.2
2017-01-17T10:18:02.467Z,56.92
2017-01-17T10:19:02.479Z,57.08
2017-01-17T10:20:02.487Z,56.61
2017-01-17T10:21:02.096Z,56.89
2017-01-17T10:22:02.505Z,56.7
2017-01-17T10:23:02.119Z,57.08
2017-01-17T10:24:02.126Z,56.73
2017-01-17T10:25:02.534Z,57.01
2017-01-17T10:26:02.144Z,56.89
2017-01-17T10:27:02.152Z,57.37
2017-01-17T10:28:02.562Z,57.93
2017-01-17T10:29:02.572Z,57.77
2017-01-17T10:30:02.580Z,58.06
2017-01-17T10:31:02.192Z,57.68
2017-01-17T10:32:02.198Z,57.01
2017-01-17T10:33:02.209Z,56.35
2017-01-17T10:34:02.616Z,56.23
2017-01-17T10:35:02.227Z,57.27
2017-01-17T10:36:02.634Z,57.93
2017-01-17T10:37:02.252Z,57.18
2017-01-17T10:38:02.253Z,57.55
2017-01-17T10:39:02.267Z,57.93
2017-01-17T10:40:02.322Z,57.68
2017-01-17T10:41:02.681Z,57.96
2017-01-17T10:42:02.720Z,57.77
2017-01-17T10:43:02.700Z,57.68
2017-01-17T10:44:02.310Z,57.68
2017-01-17T10:45:02.770Z,57.65
2017-01-17T10:46:02.728Z,57.87
2017-01-17T10:47:02.739Z,57.37
2017-01-17T10:48:02.773Z,56.45
2017-01-17T10:49:02.355Z,57.39
2017-01-17T10:50:02.820Z,56.8
2017-01-17T10:51:02.774Z,56.89
2017-01-17T10:52:02.783Z,57.87
2017-01-17T10:53:02.392Z,57.68
2017-01-17T10:54:02.427Z,57.39
2017-01-17T10:55:02.864Z,57.96
2017-01-17T10:56:02.819Z,56.92
2017-01-17T10:57:02.827Z,56.82
2017-01-17T10:58:02.839Z,57.2
2017-01-17T10:59:02.448Z,56.63
2017-01-17T11:00:02.908Z,56.82
2017-01-17T11:01:02.465Z,56.26
2017-01-17T11:02:02.881Z,56.35
2017-01-17T11:03:02.526Z,55.79
2017-01-17T11:04:02.502Z,56.35
2017-01-17T11:05:02.904Z,57.77
2017-01-17T11:06:02.514Z,57.01
2017-01-17T11:07:02.931Z,56.45
2017-01-17T11:08:02.534Z,56.45
2017-01-17T11:09:02.590Z,57.2
2017-01-17T11:10:02.947Z,57.68
2017-01-17T11:11:02.561Z,57.77
2017-01-17T11:12:02.968Z,57.87
2017-01-17T11:13:02.976Z,57.77
2017-01-17T11:14:02.986Z,57.77
2017-01-17T11:15:02.601Z,56.82
2017-01-17T11:16:03.056Z,55.31
2017-01-17T11:17:02.629Z,54.74
2017-01-17T11:18:02.627Z,55.31
2017-01-17T11:19:02.636Z,56.07
2017-01-17T11:20:02.643Z,57.39
2017-01-17T11:21:03.103Z,57.39
2017-01-17T11:22:02.664Z,55.88
2017-01-17T11:23:02.674Z,55.6
2017-01-17T11:24:03.080Z,57.58
2017-01-17T11:25:03.091Z,58.34
2017-01-17T11:26:02.761Z,57.77
2017-01-17T11:27:02.711Z,58.53
2017-01-17T11:28:03.120Z,58.44
2017-01-17T11:29:02.732Z,57.68
2017-01-17T11:30:03.138Z,56.63
2017-01-17T11:31:02.748Z,56.73
2017-01-17T11:32:02.762Z,55.6
2017-01-17T11:33:02.767Z,55.79
2017-01-17T11:34:02.777Z,56.73
2017-01-17T11:35:03.183Z,56.63
2017-01-17T11:36:02.796Z,55.44
2017-01-17T11:37:02.808Z,55.34
2017-01-17T11:38:02.816Z,55.34
2017-01-17T11:39:02.828Z,55.03
2017-01-17T11:40:02.837Z,55.41
2017-01-17T11:41:03.248Z,55.22
2017-01-17T11:42:02.854Z,56.16
2017-01-17T11:43:02.868Z,56.63
2017-01-17T11:44:02.873Z,55.63
2017-01-17T11:45:03.384Z,55.34
2017-01-17T11:46:02.903Z,55.06
2017-01-17T11:47:02.907Z,55.34
2017-01-17T11:48:03.315Z,54.87
2017-01-17T11:49:02.923Z,53.45
2017-01-17T11:50:03.331Z,53.74
2017-01-17T11:51:03.344Z,54.77
2017-01-17T11:52:03.353Z,54.87
2017-01-17T11:53:02.964Z,55.15
2017-01-17T11:54:02.972Z,54.77
2017-01-17T11:55:03.385Z,54.87
2017-01-17T11:56:03.440Z,54.21
2017-01-17T11:57:03.398Z,54.02
2017-01-17T11:58:03.011Z,53.36
2017-01-17T11:59:03.026Z,54.87
2017-01-17T12:00:03.433Z,55.15
2017-01-17T12:01:03.454Z,54.87
2017-01-17T12:02:03.052Z,54.21
2017-01-17T12:03:03.461Z,53.92
2017-01-17T12:04:03.074Z,54.11
2017-01-17T12:05:03.085Z,53.83
2017-01-17T12:06:03.520Z,53.64
2017-01-17T12:07:03.503Z,52.88
2017-01-17T12:08:03.511Z,52.69
2017-01-17T12:09:03.122Z,52.79
2017-01-17T12:10:03.134Z,52.69
2017-01-17T12:11:03.148Z,53.07
2017-01-17T12:12:03.154Z,52.31
2017-01-17T12:13:03.163Z,52.5
2017-01-17T12:14:03.571Z,52.69
2017-01-17T12:15:03.585Z,52.79
2017-01-17T12:16:03.195Z,51.75
2017-01-17T12:17:03.602Z,51.56
2017-01-17T12:18:03.213Z,50.99
2017-01-17T12:19:03.622Z,51.93
2017-01-17T12:20:03.236Z,52.41
2017-01-17T12:21:03.643Z,51.46
2017-01-17T12:22:03.651Z,52.03
2017-01-17T12:23:03.314Z,53.07
2017-01-17T12:24:03.274Z,53.92
2017-01-17T12:25:03.686Z,53.57
2017-01-17T12:26:03.693Z,53.38
2017-01-17T12:27:03.704Z,51.68
2017-01-17T12:28:03.333Z,50.54
2017-01-17T12:29:03.727Z,51.58
2017-01-17T12:30:03.736Z,50.63
2017-01-17T12:31:03.352Z,50.82
2017-01-17T12:32:03.759Z,50.45
2017-01-17T12:33:03.869Z,50.35
2017-01-17T12:34:03.388Z,49.88
2017-01-17T12:35:03.405Z,48.74
2017-01-17T12:36:03.803Z,48.84
2017-01-17T12:37:03.815Z,48.46
2017-01-17T12:38:03.825Z,49.88
2017-01-17T12:39:03.437Z,51.39
2017-01-17T12:40:03.846Z,51.87
2017-01-17T12:41:03.859Z,51.49
2017-01-17T12:42:03.871Z,50.47
2017-01-17T12:43:03.879Z,48.86
2017-01-17T12:44:03.889Z,48.29
2017-01-17T12:45:03.901Z,48.2
2017-01-17T12:46:03.936Z,48.84
2017-01-17T12:47:03.541Z,49.98
2017-01-17T12:48:03.935Z,49.6
2017-01-17T12:49:03.648Z,49.69
2017-01-17T12:50:03.968Z,49.79
2017-01-17T12:51:03.996Z,50.92
2017-01-17T12:52:03.583Z,51.39
2017-01-17T12:53:03.997Z,50.95
2017-01-17T12:54:04.004Z,49.81
2017-01-17T12:55:04.015Z,50.47